Time;durP1;ratioP1;P1;durP2;ratioP2;P2;SDS_P1;SDS_P2;PMS_P1;PMS_P2;Temp;Humidity;BMP_temperature;BMP_pressure;BME280_temperature;BME280_humidity;BME280_pressure;Samples;Min_cycle;Max_cycle;Signal;HPM_P1;HPM_P2
2023/08/10 00:01:55;;;;;;;10.35;2.45;;;;;;;;;;5034077;28;20049;-81
2023/08/10 00:04:21;;;;;;;5.75;2.40;;;14.20;1.00;;;;;;5034141;28;20055;-85
2023/08/10 00:06:47;;;;;;;11.38;2.78;;;;;;;;;;5017344;28;20417;-80
2023/08/10 00:09:13;;;;;;;3.85;1.88;;;;;;;;;;5037280;28;20036;-80
2023/08/10 00:11:39;;;;;;;8.23;2.00;;;;;;;;;;5037957;28;20490;-80
2023/08/10 00:14:05;;;;;;;5.60;2.15;;;14.60;1.00;;;;;;5038094;28;20044;-81
2023/08/10 00:16:31;;;;;;;3.35;1.80;;;;;;;;;;5038072;28;20410;-84
2023/08/10 00:18:57;;;;;;;3.60;1.95;;;;;;;;;;5021831;28;20476;-81
2023/08/10 00:21:24;;;;;;;4.03;2.00;;;;;;;;;;5005130;28;20088;-81
2023/08/10 00:23:50;;;;;;;4.03;1.90;;;;;;;;;;5037856;28;20494;-81
2023/08/10 00:26:16;;;;;;;3.08;2.00;;;;;;;;;;5038032;28;20088;-80
2023/08/10 00:28:42;;;;;;;4.10;2.75;;;;;;;;;;5021300;28;20106;-81
2023/08/10 00:31:09;;;;;;;6.82;2.60;;;;;;;;;;5037709;28;20036;-80
2023/08/10 00:33:37;;;;;;;5.95;2.15;;;;;;;;;;5037686;28;20057;-82
2023/08/10 00:36:06;;;;;;;6.88;2.38;;;;;;;;;;5037619;28;20087;-81
2023/08/10 00:38:32;;;;;;;6.28;3.13;;;;;;;;;;5037999;28;20052;-81
2023/08/10 00:40:58;;;;;;;2.75;2.10;;;;;;;;;;5005089;28;20098;-82
2023/08/10 00:43:24;;;;;;;3.85;2.42;;;;;;;;;;5037597;28;20048;-80
2023/08/10 00:45:52;;;;;;;4.20;2.38;;;14.20;1.00;;;;;;5004734;28;20138;-81
2023/08/10 00:48:20;;;;;;;5.00;2.47;;;;;;;;;;5037397;28;20047;-85
2023/08/10 00:50:46;;;;;;;5.65;2.00;;;;;;;;;;5037561;28;20053;-81
2023/08/10 00:53:12;;;;;;;5.68;2.65;;;;;;;;;;5037274;28;20124;-81
2023/08/10 00:55:38;;;;;;;5.38;2.50;;;13.90;1.00;;;;;;5036923;28;20490;-80
2023/08/10 00:58:04;;;;;;;4.45;2.33;;;;;;;;;;5004545;28;20049;-83
2023/08/10 01:00:30;;;;;;;7.32;2.60;;;;;;;;;;5021077;28;20041;-82
2023/08/10 01:02:56;;;;;;;6.18;2.30;;;;;;;;;;5004275;28;20045;-81
2023/08/10 01:05:22;;;;;;;7.05;2.28;;;;;;;;;;5004872;28;20032;-85
2023/08/10 01:07:49;;;;;;;3.92;3.30;;;;;;;;;;5004414;28;20053;-82
2023/08/10 01:10:33;;;;;;;4.18;1.95;;;;;;;;;;5037155;28;20076;-83
2023/08/10 01:13:12;;;;;;;5.50;2.67;;;;;;;;;;5037195;28;20371;-81
2023/08/10 01:15:53;;;;;;;5.68;2.65;;;14.00;1.00;;;;;;5037205;28;20083;-81
2023/08/10 01:18:22;;;;;;;4.80;2.72;;;;;;;;;;5020412;28;20037;-83
2023/08/10 01:20:49;;;;;;;4.28;2.40;;;;;;;;;;5036842;28;20107;-81
2023/08/10 01:23:46;;;;;;;4.93;2.83;;;14.20;1.00;;;;;;5037198;28;20049;-83
2023/08/10 01:26:12;;;;;;;6.97;2.00;;;;;;;;;;5036517;28;20072;-80
2023/08/10 01:28:40;;;;;;;2.90;2.13;;;14.20;1.00;;;;;;5036646;28;20107;-80
2023/08/10 01:31:06;;;;;;;4.95;2.05;;;;;;;;;;5036313;28;20044;-80
2023/08/10 01:33:33;;;;;;;7.88;2.50;;;14.10;1.00;;;;;;5036476;28;20051;-80
2023/08/10 01:35:59;;;;;;;3.33;2.10;;;;;;;;;;5019936;28;20041;-80
2023/08/10 01:38:27;;;;;;;5.13;3.17;;;;;;;;;;5036673;28;20477;-80
2023/08/10 01:40:53;;;;;;;2.65;1.67;;;;;;;;;;5036825;28;20044;-80
2023/08/10 01:43:20;;;;;;;4.05;1.85;;;;;;;;;;5036666;28;20448;-80
2023/08/10 01:45:49;;;;;;;8.82;2.67;;;;;;;;;;5020177;28;20454;-80
2023/08/10 01:48:27;;;;;;;2.97;1.80;;;14.00;1.00;;;;;;5036138;28;20049;-80
2023/08/10 01:50:56;;;;;;;4.15;2.20;;;13.90;1.00;;;;;;5036679;28;20044;-80
2023/08/10 01:53:28;;;;;;;4.07;2.00;;;13.80;1.00;;;;;;5019674;28;20052;-81
2023/08/10 01:55:54;;;;;;;11.30;2.33;;;;;;;;;;5019439;28;20041;-80
2023/08/10 01:58:21;;;;;;;5.90;2.78;;;;;;;;;;5036047;28;20040;-80
2023/08/10 02:00:47;;;;;;;3.03;2.72;;;;;;;;;;5036189;28;20052;-81
2023/08/10 02:03:13;;;;;;;4.70;2.33;;;;;;;;;;5002993;28;20041;-81
2023/08/10 02:05:39;;;;;;;7.53;2.80;;;;;;;;;;5035880;28;20045;-81
2023/08/10 02:08:07;;;;;;;5.78;2.83;;;;;;;;;;5035855;28;20045;-81
2023/08/10 02:10:33;;;;;;;8.20;2.38;;;;;;;;;;5003468;28;20049;-81
2023/08/10 02:12:59;;;;;;;7.78;2.88;;;;;;;;;;5036092;28;20041;-81
2023/08/10 02:15:26;;;;;;;6.35;3.40;;;;;;;;;;5035866;28;20485;-81
2023/08/10 02:17:52;;;;;;;4.43;2.55;;;;;;;;;;5035810;28;20061;-81
2023/08/10 02:20:18;;;;;;;7.35;2.70;;;;;;;;;;5002993;28;20043;-81
2023/08/10 02:22:51;;;;;;;6.78;3.00;;;13.90;1.00;;;;;;5035481;28;20044;-81
2023/08/10 02:25:19;;;;;;;4.28;2.30;;;;;;;;;;5002902;28;20556;-81
2023/08/10 02:27:46;;;;;;;4.00;2.60;;;;;;;;;;5035393;28;20055;-81
2023/08/10 02:30:13;;;;;;;6.25;3.00;;;;;;;;;;5034885;28;20071;-80
2023/08/10 02:32:39;;;;;;;4.10;2.75;;;13.60;1.00;;;;;;5035289;28;20540;-80
2023/08/10 02:35:06;;;;;;;5.75;2.10;;;;;;;;;;5018925;28;20075;-80
2023/08/10 02:37:32;;;;;;;4.65;2.67;;;13.60;1.00;;;;;;5035275;28;20064;-81
2023/08/10 02:39:59;;;;;;;8.40;2.42;;;;;;;;;;5018682;28;20491;-81
2023/08/10 02:42:25;;;;;;;2.67;2.33;;;;;;;;;;5035311;28;20045;-80
2023/08/10 02:44:52;;;;;;;5.70;2.47;;;;;;;;;;5002435;28;20535;-81
2023/08/10 02:47:18;;;;;;;6.38;2.38;;;;;;;;;;5034932;28;20502;-81
2023/08/10 02:49:44;;;;;;;5.43;2.75;;;;;;;;;;5018615;28;20046;-80
2023/08/10 02:52:11;;;;;;;6.85;2.30;;;;;;;;;;5034994;28;20124;-80
2023/08/10 02:54:37;;;;;;;4.82;3.00;;;;;;;;;;5018802;28;20406;-81
2023/08/10 02:57:03;;;;;;;7.18;2.58;;;;;;;;;;5034866;28;20103;-81
2023/08/10 02:59:29;;;;;;;6.07;3.17;;;;;;;;;;5034852;28;20132;-80
2023/08/10 03:01:55;;;;;;;4.70;2.70;;;;;;;;;;5018859;28;20405;-80
2023/08/10 03:04:21;;;;;;;2.72;2.15;;;;;;;;;;5034561;28;20041;-81
2023/08/10 03:06:48;;;;;;;7.97;3.08;;;;;;;;;;5034731;28;20047;-80
2023/08/10 03:09:14;;;;;;;7.07;2.85;;;;;;;;;;5052688;28;20045;-80
2023/08/10 03:11:40;;;;;;;5.68;3.42;;;;;;;;;;5018764;28;20397;-80
2023/08/10 03:14:06;;;;;;;4.28;3.05;;;;;;;;;;5034459;28;20132;-81
2023/08/10 03:16:32;;;;;;;5.57;3.22;;;;;;;;;;5034458;28;20049;-80
2023/08/10 03:18:58;;;;;;;9.68;2.90;;;;;;;;;;5034475;28;20041;-80
2023/08/10 03:21:24;;;;;;;5.18;3.45;;;;;;;;;;5034554;28;20041;-81
2023/08/10 03:23:50;;;;;;;7.30;4.03;;;;;;;;;;5034390;28;20045;-81
2023/08/10 03:26:16;;;;;;;9.75;3.47;;;;;;;;;;5018364;28;20057;-84
2023/08/10 03:28:43;;;;;;;6.50;3.22;;;;;;;;;;5001804;28;20049;-81
2023/08/10 03:31:12;;;;;;;5.20;3.42;;;13.40;1.00;;;;;;5034913;28;20375;-81
2023/08/10 03:33:39;;;;;;;4.60;3.15;;;;;;;;;;5034647;28;20051;-83
2023/08/10 03:36:05;;;;;;;10.35;3.67;;;;;;;;;;5001525;28;20060;-86
2023/08/10 03:38:31;;;;;;;7.68;4.22;;;;;;;;;;5018163;28;20052;-83
2023/08/10 03:40:57;;;;;;;4.70;2.83;;;;;;;;;;5001802;28;20124;-80
2023/08/10 03:43:23;;;;;;;13.75;4.43;;;;;;;;;;5033558;28;20048;-83
2023/08/10 03:45:49;;;;;;;5.78;3.17;;;;;;;;;;5035055;28;20037;-81
2023/08/10 03:48:15;;;;;;;9.32;4.82;;;;;;;;;;5035619;28;20049;-84
2023/08/10 03:50:41;;;;;;;10.02;3.97;;;;;;;;;;5034973;28;20045;-84
2023/08/10 03:53:07;;;;;;;7.45;3.30;;;;;;;;;;5034683;28;20041;-86
2023/08/10 03:55:33;;;;;;;6.35;3.63;;;;;;;;;;5002041;28;20405;-81
2023/08/10 03:57:59;;;;;;;5.65;3.65;;;;;;;;;;5018183;28;20045;-89
2023/08/10 04:00:25;;;;;;;7.35;3.83;;;;;;;;;;5017916;28;20037;-86
2023/08/10 04:02:53;;;;;;;8.43;4.00;;;;;;;;;;5017448;28;20055;-84
2023/08/10 04:05:19;;;;;;;6.45;3.88;;;;;;;;;;5033932;28;20095;-85
2023/08/10 04:07:45;;;;;;;7.03;3.65;;;;;;;;;;5034381;28;20502;-81
2023/08/10 04:10:11;;;;;;;10.15;3.72;;;;;;;;;;5001480;28;20045;-81
2023/08/10 04:12:38;;;;;;;6.25;3.53;;;;;;;;;;5017404;28;20056;-81
2023/08/10 04:15:08;;;;;;;6.10;3.75;;;13.70;4.40;;;;;;5033766;28;20557;-81
2023/08/10 04:17:35;;;;;;;7.35;3.60;;;;;;;;;;5017737;28;20583;-81
2023/08/10 04:20:01;;;;;;;8.38;3.40;;;;;;;;;;5034284;28;20122;-81
2023/08/10 04:22:27;;;;;;;6.88;3.30;;;;;;;;;;5033960;28;20517;-80
2023/08/10 04:24:52;;;;;;;8.77;3.58;;;13.40;19.80;;;;;;5033819;28;20052;-81
2023/08/10 04:27:19;;;;;;;4.80;3.42;;;;;;;;;;5000794;28;20048;-80
2023/08/10 04:29:45;;;;;;;7.10;4.47;;;13.50;2.00;;;;;;5033697;28;20049;-80
2023/08/10 04:32:20;;;;;;;5.03;3.40;;;;;;;;;;5017541;28;20393;-82
2023/08/10 04:34:46;;;;;;;7.10;3.38;;;;;;;;;;5033678;28;20041;-80
2023/08/10 04:37:13;;;;;;;5.07;3.70;;;;;;;;;;5033627;28;20049;-80
2023/08/10 04:39:39;;;;;;;11.93;3.97;;;;;;;;;;5033450;28;20520;-81
2023/08/10 04:42:05;;;;;;;8.65;3.30;;;;;;;;;;5017388;28;20049;-80
2023/08/10 04:44:31;;;;;;;7.80;3.90;;;;;;;;;;5033701;28;20486;-81
2023/08/10 04:46:57;;;;;;;6.45;3.97;;;;;;;;;;5033601;28;20099;-80
2023/08/10 04:49:26;;;;;;;6.30;3.25;;;;;;;;;;5001183;28;20048;-80
2023/08/10 04:51:52;;;;;;;10.57;4.38;;;;;;;;;;5033453;28;20049;-80
2023/08/10 04:54:18;;;;;;;6.88;3.50;;;;;;;;;;5035227;28;20064;-80
2023/08/10 04:56:44;;;;;;;8.95;4.35;;;;;;;;;;5037164;28;20405;-80
2023/08/10 04:59:10;;;;;;;6.97;3.53;;;;;;;;;;5037006;28;20037;-80
2023/08/10 05:01:38;;;;;;;4.78;3.47;;;;;;;;;;5036989;28;20387;-81
2023/08/10 05:04:04;;;;;;;3.97;3.10;;;;;;;;;;5020642;28;20045;-83
2023/08/10 05:06:30;;;;;;;3.30;2.90;;;;;;;;;;5020684;28;20132;-85
2023/08/10 05:08:56;;;;;;;7.78;4.10;;;;;;;;;;5037450;28;20485;-86
2023/08/10 05:11:23;;;;;;;11.52;3.42;;;;;;;;;;5037378;28;20076;-82
2023/08/10 05:13:49;;;;;;;9.77;4.15;;;;;;;;;;5037368;28;20095;-83
2023/08/10 05:16:15;;;;;;;6.50;3.72;;;;;;;;;;5020701;28;20056;-84
2023/08/10 05:18:41;;;;;;;5.05;3.42;;;;;;;;;;5036994;28;20098;-85
2023/08/10 05:21:07;;;;;;;5.45;3.55;;;;;;;;;;5037080;28;20131;-83
2023/08/10 05:23:35;;;;;;;9.20;3.90;;;;;;;;;;5004303;28;20045;-82
2023/08/10 05:26:01;;;;;;;5.88;3.20;;;;;;;;;;5004186;28;20044;-83
2023/08/10 05:28:27;;;;;;;6.65;3.80;;;;;;;;;;5037045;28;20048;-85
2023/08/10 05:30:53;;;;;;;13.85;3.33;;;;;;;;;;5036809;28;20049;-88
2023/08/10 05:33:19;;;;;;;6.05;2.97;;;;;;;;;;5004015;28;20041;-87
2023/08/10 05:35:46;;;;;;;6.28;3.30;;;;;;;;;;5003943;28;20064;-85
2023/08/10 05:38:13;;;;;;;6.35;3.72;;;;;;;;;;5037066;28;20060;-86
2023/08/10 05:40:39;;;;;;;3.45;2.90;;;;;;;;;;5020437;28;20379;-86
2023/08/10 05:43:05;;;;;;;7.80;3.20;;;;;;;;;;5036368;28;20049;-85
2023/08/10 05:45:32;;;;;;;8.48;3.15;;;;;;;;;;5036528;28;20099;-86
2023/08/10 05:47:58;;;;;;;6.80;3.38;;;14.20;21.00;;;;;;5036505;28;20114;-88
2023/08/10 05:50:24;;;;;;;7.97;2.72;;;;;;;;;;5003578;28;20044;-88
2023/08/10 05:52:50;;;;;;;7.82;3.17;;;;;;;;;;5036045;28;20102;-83
2023/08/10 05:55:16;;;;;;;9.82;3.25;;;14.30;20.20;;;;;;5036017;28;20037;-82
2023/08/10 05:57:42;;;;;;;6.45;3.30;;;;;;;;;;5019412;28;20045;-80
2023/08/10 06:00:12;;;;;;;4.50;2.90;;;14.40;19.60;;;;;;4997307;28;20487;-82
2023/08/10 06:02:38;;;;;;;4.97;2.72;;;;;;;;;;4996733;28;20061;-86
2023/08/10 06:05:06;;;;;;;6.55;3.42;;;;;;;;;;4963616;28;20129;-85
2023/08/10 06:07:33;;;;;;;3.63;2.42;;;14.50;5.00;;;;;;4980207;28;20495;-84
2023/08/10 06:09:59;;;;;;;10.90;2.58;;;;;;;;;;4980681;28;20077;-86
2023/08/10 06:12:25;;;;;;;9.65;3.20;;;;;;;;;;4980701;28;20044;-87
2023/08/10 06:14:51;;;;;;;4.22;2.60;;;;;;;;;;4980729;28;20050;-83
2023/08/10 06:17:17;;;;;;;5.63;2.40;;;;;;;;;;4980481;28;20046;-81
2023/08/10 06:19:53;;;;;;;7.05;2.25;;;14.80;16.30;;;;;;4964634;28;20069;-87
2023/08/10 06:22:20;;;;;;;4.95;2.67;;;14.50;13.10;;;;;;4963822;28;20057;-85
2023/08/10 06:24:46;;;;;;;4.75;2.58;;;15.00;1.00;;;;;;4979714;28;20403;-86
2023/08/10 06:27:13;;;;;;;3.78;2.70;;;15.30;13.80;;;;;;4980296;28;20141;-84
2023/08/10 06:29:40;;;;;;;4.53;2.53;;;;;;;;;;4980393;28;20049;-86
2023/08/10 06:32:07;;;;;;;6.40;2.35;;;15.10;1.00;;;;;;4980190;28;20503;-89
2023/08/10 06:34:34;;;;;;;3.65;2.50;;;15.30;1.00;;;;;;4964115;28;20466;-89
2023/08/10 06:37:00;;;;;;;5.50;2.33;;;;;;;;;;4996469;28;20047;-82
2023/08/10 06:39:27;;;;;;;8.55;2.55;;;;;;;;;;4980310;28;20100;-85
2023/08/10 06:41:53;;;;;;;12.38;2.35;;;;;;;;;;4980161;28;20053;-83
2023/08/10 06:44:20;;;;;;;6.32;2.00;;;15.50;7.60;;;;;;4979955;28;20042;-87
2023/08/10 06:46:46;;;;;;;6.57;2.80;;;;;;;;;;4980114;28;20042;-89
2023/08/10 06:49:12;;;;;;;14.95;2.35;;;;;;;;;;4980170;28;20060;-89
2023/08/10 06:51:38;;;;;;;2.45;1.73;;;;;;;;;;4996689;28;20042;-85
2023/08/10 06:54:04;;;;;;;6.32;2.65;;;;;;;;;;4995705;28;20053;-87
2023/08/10 06:56:30;;;;;;;7.28;1.80;;;;;;;;;;4979428;28;20133;-82
2023/08/10 06:58:57;;;;;;;8.07;1.90;;;;;;;;;;4995326;28;20495;-83
2023/08/10 07:01:23;;;;;;;4.53;1.83;;;;;;;;;;4979162;28;20081;-90
2023/08/10 07:03:48;;;;;;;7.80;2.13;;;16.10;1.00;;;;;;4963296;28;20562;-88
2023/08/10 07:06:16;;;;;;;3.88;1.40;;;;;;;;;;4979268;28;20124;-89
2023/08/10 07:08:42;;;;;;;4.47;1.80;;;;;;;;;;4979297;28;20049;-89
2023/08/10 07:11:07;;;;;;;4.18;1.83;;;16.30;1.00;;;;;;4963137;28;20053;-89
2023/08/10 07:13:33;;;;;;;3.55;1.90;;;;;;;;;;4963457;28;20045;-88
2023/08/10 07:15:59;;;;;;;2.35;1.63;;;16.40;1.00;;;;;;4979180;28;20453;-85
2023/08/10 07:18:25;;;;;;;3.30;2.00;;;;;;;;;;4978658;28;20104;-89
2023/08/10 07:20:51;;;;;;;4.10;1.80;;;;;;;;;;4978993;28;20046;-89
2023/08/10 07:23:17;;;;;;;4.25;1.48;;;16.70;1.00;;;;;;4979114;28;20050;-89
2023/08/10 07:25:45;;;;;;;4.20;1.65;;;16.50;1.00;;;;;;4946954;28;20042;-90
2023/08/10 07:28:11;;;;;;;4.57;1.30;;;;;;;;;;4978627;28;20064;-89
2023/08/10 07:30:38;;;;;;;2.58;1.30;;;;;;;;;;4978737;28;20129;-87
2023/08/10 07:33:04;;;;;;;4.10;1.65;;;15.90;1.00;;;;;;4978430;28;20057;-88
2023/08/10 07:35:30;;;;;;;12.13;3.17;;;;;;;;;;4995239;28;20050;-83
2023/08/10 07:37:56;;;;;;;4.90;1.55;;;16.90;1.00;;;;;;4962980;28;20494;-90
2023/08/10 07:40:23;;;;;;;4.45;1.73;;;;;;;;;;4962704;28;20061;-89
2023/08/10 07:42:49;;;;;;;4.15;1.50;;;;;;;;;;4995099;28;20053;-87
2023/08/10 07:45:15;;;;;;;5.15;1.38;;;16.90;1.00;;;;;;4979361;28;20053;-87
2023/08/10 07:47:41;;;;;;;9.10;2.40;;;;;;;;;;4962577;28;20042;-88
2023/08/10 07:50:07;;;;;;;5.97;1.20;;;;;;;;;;4978764;28;20528;-90
2023/08/10 07:52:33;;;;;;;4.05;1.20;;;;;;;;;;4979004;28;20077;-84
2023/08/10 07:55:00;;;;;;;2.83;1.30;;;;;;;;;;4978473;28;20096;-89
2023/08/10 07:57:25;;;;;;;4.10;1.20;;;17.20;1.00;;;;;;4978605;28;20053;-90
2023/08/10 07:59:52;;;;;;;4.32;1.40;;;;;;;;;;4978912;28;20046;-87
2023/08/10 08:02:18;;;;;;;3.90;1.38;;;;;;;;;;4994706;28;20081;-89
2023/08/10 08:04:44;;;;;;;4.72;1.58;;;;;;;;;;4962070;28;20054;-85
2023/08/10 08:07:10;;;;;;;6.28;1.90;;;;;;;;;;4995126;28;20042;-85
2023/08/10 08:09:36;;;;;;;3.40;1.50;;;;;;;;;;5012185;28;20053;-87
2023/08/10 08:12:02;;;;;;;2.28;1.40;;;17.10;1.00;;;;;;4962615;28;20144;-87
2023/08/10 08:14:28;;;;;;;1.30;1.20;;;;;;;;;;4978804;28;20432;-88
2023/08/10 08:16:54;;;;;;;5.28;2.03;;;;;;;;;;4978237;28;20120;-82
2023/08/10 08:19:20;;;;;;;2.30;1.58;;;;;;;;;;4978315;28;20132;-82
2023/08/10 08:21:48;;;;;;;10.75;1.90;;;;;;;;;;4978114;28;20495;-82
2023/08/10 08:24:14;;;;;;;2.22;1.27;;;17.40;1.00;;;;;;4978498;28;20387;-82
2023/08/10 08:26:40;;;;;;;6.63;1.40;;;17.20;1.00;;;;;;4994096;28;20057;-82
2023/08/10 08:29:06;;;;;;;3.03;1.60;;;17.20;1.00;;;;;;4979329;28;20045;-82
2023/08/10 08:31:33;;;;;;;3.72;1.60;;;;;;;;;;4965972;28;20407;-82
2023/08/10 08:33:59;;;;;;;2.17;1.40;;;;;;;;;;4997856;28;20085;-82
2023/08/10 08:36:25;;;;;;;7.10;2.53;;;;;;;;;;4998134;28;20042;-82
2023/08/10 08:38:51;;;;;;;4.78;1.77;;;;;;;;;;4966037;28;20191;-81
2023/08/10 08:41:18;;;;;;;3.33;1.50;;;;;;;;;;4965678;28;20041;-82
2023/08/10 08:43:45;;;;;;;21.48;2.50;;;17.70;1.00;;;;;;4998183;28;20099;-83
2023/08/10 08:46:12;;;;;;;4.55;1.40;;;17.50;1.00;;;;;;4981805;28;20513;-82
2023/08/10 08:48:39;;;;;;;5.65;1.38;;;;;;;;;;4981726;28;20661;-82
2023/08/10 08:51:08;;;;;;;7.60;2.45;;;;;;;;;;4981618;28;20042;-81
2023/08/10 08:53:34;;;;;;;1.65;1.13;;;;;;;;;;4997652;28;20081;-82
2023/08/10 08:56:00;;;;;;;3.65;1.23;;;;;;;;;;4997624;28;20050;-81
2023/08/10 08:58:27;;;;;;;11.55;2.00;;;17.50;1.00;;;;;;4981682;28;20048;-82
2023/08/10 09:00:53;;;;;;;5.40;2.25;;;17.60;1.00;;;;;;4981486;28;20073;-81
2023/08/10 09:03:22;;;;;;;6.15;1.67;;;17.70;1.00;;;;;;4965135;28;20509;-82
2023/08/10 09:05:48;;;;;;;5.43;1.42;;;;;;;;;;4981333;28;20054;-82
2023/08/10 09:08:19;;;;;;;2.35;1.15;;;17.70;1.00;;;;;;4997898;28;20188;-82
2023/08/10 09:10:46;;;;;;;4.57;1.15;;;;;;;;;;4981348;28;20042;-82
2023/08/10 09:13:18;;;;;;;8.55;1.75;;;17.60;1.00;;;;;;4997488;28;20046;-81
2023/08/10 09:15:44;;;;;;;2.83;1.38;;;;;;;;;;4997490;28;20096;-81
2023/08/10 09:18:11;;;;;;;4.97;1.60;;;;;;;;;;4981214;28;20049;-82
2023/08/10 09:20:37;;;;;;;5.35;1.17;;;;;;;;;;4981137;28;20169;-82
2023/08/10 09:23:03;;;;;;;2.33;1.70;;;17.80;1.00;;;;;;4997288;28;20074;-82
2023/08/10 09:25:39;;;;;;;4.95;1.20;;;17.90;1.00;;;;;;4965180;28;20088;-82
2023/08/10 09:28:09;;;;;;;4.32;1.50;;;18.10;1.00;;;;;;4980832;28;20054;-81
2023/08/10 09:30:36;;;;;;;7.82;2.08;;;;;;;;;;4997063;28;20499;-82
2023/08/10 09:33:02;;;;;;;3.90;1.50;;;;;;;;;;5014676;28;20120;-81
2023/08/10 09:35:31;;;;;;;3.53;1.25;;;18.20;1.00;;;;;;5014587;28;20112;-82
2023/08/10 09:38:01;;;;;;;4.60;1.35;;;17.80;1.00;;;;;;4997292;28;20241;-82
2023/08/10 09:40:28;;;;;;;6.10;1.55;;;;;;;;;;5013234;28;20053;-82
2023/08/10 09:42:54;;;;;;;3.17;1.00;;;;;;;;;;4981351;28;20092;-82
2023/08/10 09:45:20;;;;;;;8.27;1.77;;;;;;;;;;5015251;28;20073;-82
2023/08/10 09:47:46;;;;;;;3.33;1.40;;;18.00;1.00;;;;;;5015187;28;20609;-82
2023/08/10 09:50:16;;;;;;;5.05;1.48;;;18.10;1.00;;;;;;4997434;28;20144;-82
2023/08/10 09:52:43;;;;;;;5.90;1.75;;;18.20;1.00;;;;;;4997287;28;20180;-82
2023/08/10 09:55:10;;;;;;;1.85;1.02;;;18.10;1.00;;;;;;4997429;28;20049;-82
2023/08/10 09:57:40;;;;;;;3.45;1.10;;;;;;;;;;4996841;28;20128;-82
2023/08/10 10:00:13;;;;;;;5.70;1.83;;;18.30;1.00;;;;;;4981369;28;20046;-82
2023/08/10 10:02:40;;;;;;;3.67;1.30;;;18.00;1.00;;;;;;4996829;28;20127;-82
2023/08/10 10:05:06;;;;;;;7.10;1.52;;;18.10;1.00;;;;;;4997176;28;20582;-81
2023/08/10 10:07:32;;;;;;;3.22;1.55;;;;;;;;;;4981129;28;20046;-81
2023/08/10 10:09:59;;;;;;;1.30;1.20;;;18.30;1.00;;;;;;4997461;28;20042;-82
2023/08/10 10:12:26;;;;;;;4.95;1.42;;;;;;;;;;4997044;28;20057;-82
2023/08/10 10:14:52;;;;;;;2.00;1.45;;;;;;;;;;4980621;28;20128;-82
2023/08/10 10:17:19;;;;;;;3.88;1.45;;;18.30;1.00;;;;;;4996753;28;20046;-82
2023/08/10 10:19:48;;;;;;;3.65;1.50;;;18.20;1.00;;;;;;4964700;28;20056;-82
2023/08/10 10:22:17;;;;;;;6.55;1.50;;;18.40;1.00;;;;;;4996846;28;20128;-82
2023/08/10 10:24:43;;;;;;;2.20;0.98;;;;;;;;;;4997086;28;20045;-82
2023/08/10 10:27:13;;;;;;;2.90;1.45;;;18.40;1.00;;;;;;4996691;28;20065;-81
2023/08/10 10:29:51;;;;;;;5.32;1.27;;;18.30;1.00;;;;;;4996995;28;20050;-82
2023/08/10 10:32:19;;;;;;;3.40;1.40;;;18.60;1.00;;;;;;4979915;28;20050;-81
2023/08/10 10:34:45;;;;;;;5.68;1.77;;;;;;;;;;4996126;28;20038;-82
2023/08/10 10:37:20;;;;;;;6.25;1.88;;;18.50;1.00;;;;;;4979886;28;20048;-82
2023/08/10 10:39:50;;;;;;;2.38;1.30;;;18.60;1.00;;;;;;4980675;28;20046;-81
2023/08/10 10:42:17;;;;;;;4.97;1.33;;;18.50;1.00;;;;;;4996333;28;20088;-82
2023/08/10 10:45:07;;;;;;;3.97;1.52;;;18.80;1.00;;;;;;4996477;28;20046;-82
2023/08/10 10:47:38;;;;;;;5.68;1.25;;;18.60;1.00;;;;;;4996081;28;20081;-83
2023/08/10 10:50:34;;;;;;;4.50;1.50;;;18.80;1.00;;;;;;4996029;28;20049;-82
2023/08/10 10:53:05;;;;;;;4.32;1.88;;;18.70;1.00;;;;;;4979681;28;20058;-84
2023/08/10 10:55:34;;;;;;;6.78;2.60;;;18.80;1.00;;;;;;4996128;28;20495;-88
2023/08/10 10:58:03;;;;;;;1.70;1.60;;;18.70;1.00;;;;;;4996737;28;20054;-82
2023/08/10 11:00:29;;;;;;;4.45;1.50;;;;;;;;;;4979881;28;20491;-83
2023/08/10 11:02:56;;;;;;;4.35;1.60;;;18.80;1.00;;;;;;4979997;28;20050;-90
2023/08/10 11:05:22;;;;;;;7.00;1.55;;;;;;;;;;4996292;28;20053;-89
2023/08/10 11:07:49;;;;;;;5.55;1.60;;;19.00;1.00;;;;;;4980342;28;20132;-89
2023/08/10 11:10:17;;;;;;;3.13;1.63;;;19.00;1.00;;;;;;4980070;28;20065;-82
2023/08/10 11:12:44;;;;;;;3.92;1.63;;;19.10;1.00;;;;;;4979559;28;20100;-83
2023/08/10 11:15:12;;;;;;;8.57;1.80;;;19.10;1.00;;;;;;4995724;28;20447;-83
2023/08/10 11:17:39;;;;;;;6.22;1.42;;;19.50;1.00;;;;;;4995382;28;20046;-82
2023/08/10 11:20:14;;;;;;;2.97;2.00;;;19.00;1.00;;;;;;4979462;28;20037;-83
2023/08/10 11:22:40;;;;;;;2.35;1.52;;;;;;;;;;4978966;28;20050;-83
2023/08/10 11:25:11;;;;;;;4.72;1.70;;;19.10;1.00;;;;;;4963305;28;20049;-82
2023/08/10 11:27:42;;;;;;;4.70;1.90;;;19.50;1.00;;;;;;4995366;28;20049;-83
2023/08/10 11:30:10;;;;;;;3.22;1.80;;;19.20;1.00;;;;;;4980088;28;20402;-82
2023/08/10 11:32:43;;;;;;;6.82;2.05;;;19.30;1.00;;;;;;4978824;28;20107;-83
2023/08/10 11:35:10;;;;;;;2.58;2.17;;;19.40;1.00;;;;;;4963338;28;20048;-83
2023/08/10 11:37:38;;;;;;;3.92;2.55;;;19.30;1.00;;;;;;4979207;28;20054;-90
2023/08/10 11:40:12;;;;;;;6.85;2.00;;;19.40;1.00;;;;;;4995561;28;20089;-87
2023/08/10 11:42:45;;;;;;;8.23;1.83;;;19.40;1.00;;;;;;4980031;28;20042;-88
2023/08/10 11:45:19;;;;;;;4.40;1.75;;;19.40;1.00;;;;;;4995482;28;20093;-84
2023/08/10 11:47:50;;;;;;;3.85;2.08;;;19.50;1.00;;;;;;4978376;28;20041;-85
2023/08/10 11:50:17;;;;;;;6.32;2.22;;;19.40;1.00;;;;;;4978510;28;20057;-88
2023/08/10 11:52:44;;;;;;;6.07;1.88;;;;;;;;;;4962647;28;20053;-88
2023/08/10 11:55:21;;;;;;;2.78;2.03;;;19.40;1.00;;;;;;4962729;28;20069;-89
2023/08/10 11:57:52;;;;;;;9.55;2.30;;;19.70;1.00;;;;;;4994932;28;20053;-90
2023/08/10 12:00:33;;;;;;;16.85;2.63;;;19.50;1.00;;;;;;4962499;28;20510;-88
2023/08/10 12:03:23;;;;;;;8.80;2.30;;;19.50;1.00;;;;;;4978553;28;20088;-88
2023/08/10 12:05:52;;;;;;;9.65;3.22;;;19.40;1.00;;;;;;4994617;28;20053;-90
2023/08/10 12:08:25;;;;;;;4.07;1.88;;;19.10;1.00;;;;;;4994781;28;20049;-89
2023/08/10 12:11:06;;;;;;;5.32;2.17;;;19.20;1.00;;;;;;4978215;28;20446;-89
2023/08/10 12:13:41;;;;;;;6.25;2.10;;;19.20;1.00;;;;;;4978199;28;20042;-90
2023/08/10 12:16:08;;;;;;;6.68;2.95;;;;;;;;;;4978263;28;20042;-89
2023/08/10 12:18:34;;;;;;;4.47;2.30;;;;;;;;;;4994513;28;20057;-88
2023/08/10 12:21:00;;;;;;;5.18;2.15;;;;;;;;;;4978354;28;20380;-86
2023/08/10 12:23:26;;;;;;;8.55;2.40;;;;;;;;;;4978592;28;20041;-91
2023/08/10 12:25:52;;;;;;;5.35;2.55;;;;;;;;;;4978139;28;20042;-85
2023/08/10 12:28:19;;;;;;;1.92;1.52;;;19.40;1.00;;;;;;4978135;28;20080;-82
2023/08/10 12:30:45;;;;;;;8.75;2.63;;;;;;;;;;4977964;28;20499;-85
2023/08/10 12:33:11;;;;;;;4.80;2.90;;;19.60;1.00;;;;;;4994273;28;20593;-90
2023/08/10 12:35:38;;;;;;;4.45;2.17;;;;;;;;;;4962079;28;20096;-88
2023/08/10 12:38:07;;;;;;;10.30;2.70;;;19.20;1.00;;;;;;4978271;28;20041;-88
2023/08/10 12:40:34;;;;;;;3.25;2.95;;;19.40;1.00;;;;;;4978178;28;20049;-89
2023/08/10 12:43:00;;;;;;;3.97;2.55;;;;;;;;;;4994234;28;20531;-88
2023/08/10 12:45:26;;;;;;;5.15;3.10;;;;;;;;;;4962340;28;20395;-82
2023/08/10 12:47:54;;;;;;;3.35;2.80;;;;;;;;;;5011720;28;20050;-83
2023/08/10 12:50:20;;;;;;;4.60;3.53;;;;;;;;;;4977903;28;20046;-87
2023/08/10 12:52:47;;;;;;;6.32;2.88;;;19.20;1.00;;;;;;4977876;28;20049;-82
2023/08/10 12:55:14;;;;;;;5.80;2.70;;;;;;;;;;4977874;28;20133;-82
2023/08/10 12:57:40;;;;;;;4.53;3.25;;;;;;;;;;4994008;28;20062;-83
2023/08/10 13:00:18;;;;;;;6.97;3.75;;;19.30;1.00;;;;;;4977878;28;20042;-83
2023/08/10 13:02:45;;;;;;;9.57;3.70;;;19.30;1.00;;;;;;4993687;28;20046;-82
2023/08/10 13:05:12;;;;;;;6.75;4.35;;;19.20;1.00;;;;;;4994060;28;20128;-83
2023/08/10 13:07:39;;;;;;;7.72;3.40;;;19.10;1.00;;;;;;5011947;28;20108;-82
2023/08/10 13:10:07;;;;;;;4.68;3.40;;;19.20;1.00;;;;;;5011627;28;20038;-82
2023/08/10 13:12:33;;;;;;;4.25;2.88;;;19.00;1.00;;;;;;4994071;28;20137;-83
2023/08/10 13:15:00;;;;;;;3.75;2.97;;;;;;;;;;4994952;28;20495;-82
2023/08/10 13:17:27;;;;;;;5.85;3.30;;;19.20;1.00;;;;;;4997295;28;20097;-82
2023/08/10 13:19:58;;;;;;;4.82;3.33;;;19.20;1.00;;;;;;4997177;28;20083;-83
2023/08/10 13:22:32;;;;;;;6.82;3.60;;;19.00;1.00;;;;;;4997436;28;20046;-82
2023/08/10 13:24:59;;;;;;;7.85;3.05;;;;;;;;;;4980935;28;20050;-82
2023/08/10 13:27:25;;;;;;;4.72;3.03;;;;;;;;;;4964844;28;20053;-86
2023/08/10 13:29:52;;;;;;;3.05;2.75;;;19.40;1.00;;;;;;4997115;28;20061;-88
2023/08/10 13:32:19;;;;;;;8.80;6.05;;;19.20;1.00;;;;;;4980686;28;20050;-84
2023/08/10 13:34:45;;;;;;;7.97;4.05;;;;;;;;;;4964895;28;20274;-87
2023/08/10 13:37:11;;;;;;;3.20;2.88;;;;;;;;;;4997037;28;20050;-88
2023/08/10 13:39:37;;;;;;;4.68;3.13;;;;;;;;;;4981449;28;20550;-85
2023/08/10 13:42:03;;;;;;;8.82;3.90;;;19.40;1.00;;;;;;4964788;28;20498;-88
2023/08/10 13:44:29;;;;;;;8.07;4.00;;;;;;;;;;4980814;28;20054;-88
2023/08/10 13:46:55;;;;;;;5.40;3.97;;;;;;;;;;4996941;28;20072;-90
2023/08/10 13:49:22;;;;;;;3.42;3.13;;;19.40;1.00;;;;;;4980997;28;20057;-84
2023/08/10 13:51:48;;;;;;;7.32;3.55;;;;;;;;;;4997092;28;20124;-87
2023/08/10 13:54:14;;;;;;;5.35;3.22;;;;;;;;;;4980735;28;20057;-86
2023/08/10 13:57:00;;;;;;;5.95;4.10;;;19.50;1.00;;;;;;4997896;28;20046;-88
2023/08/10 13:59:28;;;;;;;4.80;3.45;;;19.30;1.00;;;;;;4965266;28;20049;-83
2023/08/10 14:01:54;;;;;;;4.20;3.65;;;;;;;;;;4980901;28;20034;-83
2023/08/10 14:04:20;;;;;;;7.15;3.28;;;19.50;1.00;;;;;;4996740;28;20052;-83